EZY212 ELLX-EGKK
Flight info
| Callsign | EZY212 |
|---|---|
| Flight time | N/A |
| Altitude | 32000 |
| Route | RAPOR UN857 GIMER DCT DIDOR UT10 IRBAL UT421 KUNAV |
| Aircraft | A320/M-SDE3FGHIRWY/LB1 |
Departure
| Time | 2026-04-30 07:05 |
|---|---|
| Airport | Luxembourg-Findel International Airport (ELLX) |
Arrival
| Time | N/A |
|---|---|
| Airport | London Gatwick Airport (EGKK) |
| Time | Latitude | Longitude | Altitude | Speed | Heading |
|---|---|---|---|---|---|
| 2026-04-30 06:48 | 49.63336 | 6.21552 | 1231 ft | 0 kts | 330° |
| 2026-04-30 06:54 | 49.63330 | 6.21557 | 1231 ft | 2 kts | 330° |
| 2026-04-30 06:54 | 49.63316 | 6.21569 | 1226 ft | 2 kts | 330° |
| 2026-04-30 06:54 | 49.63302 | 6.21582 | 1231 ft | 2 kts | 330° |
| 2026-04-30 06:54 | 49.63288 | 6.21594 | 1231 ft | 2 kts | 322° |
| 2026-04-30 06:55 | 49.63277 | 6.21613 | 1231 ft | 2 kts | 303° |
| 2026-04-30 06:55 | 49.63269 | 6.21634 | 1231 ft | 2 kts | 308° |
| 2026-04-30 06:55 | 49.63266 | 6.21640 | 1231 ft | 0 kts | 309° |
| 2026-04-30 06:57 | 49.63269 | 6.21635 | 1231 ft | 3 kts | 308° |
| 2026-04-30 06:57 | 49.63275 | 6.21584 | 1231 ft | 9 kts | 257° |
| 2026-04-30 06:57 | 49.63249 | 6.21534 | 1231 ft | 4 kts | 205° |
| 2026-04-30 06:57 | 49.63217 | 6.21541 | 1231 ft | 6 kts | 155° |
| 2026-04-30 06:58 | 49.63179 | 6.21575 | 1231 ft | 6 kts | 149° |
| 2026-04-30 06:58 | 49.63136 | 6.21613 | 1230 ft | 11 kts | 151° |
| 2026-04-30 06:58 | 49.63074 | 6.21619 | 1228 ft | 9 kts | 223° |
| 2026-04-30 06:58 | 49.63034 | 6.21502 | 1227 ft | 14 kts | 247° |
| 2026-04-30 06:59 | 49.62999 | 6.21389 | 1230 ft | 9 kts | 244° |
| 2026-04-30 06:59 | 49.62972 | 6.21304 | 1232 ft | 10 kts | 243° |
| 2026-04-30 06:59 | 49.62931 | 6.21174 | 1246 ft | 18 kts | 243° |
| 2026-04-30 06:59 | 49.62883 | 6.21018 | 1241 ft | 14 kts | 246° |
| 2026-04-30 07:00 | 49.62843 | 6.20891 | 1251 ft | 11 kts | 245° |
| 2026-04-30 07:00 | 49.62804 | 6.20772 | 1240 ft | 15 kts | 232° |
| 2026-04-30 07:00 | 49.62739 | 6.20670 | 1245 ft | 12 kts | 217° |
| 2026-04-30 07:00 | 49.62672 | 6.20591 | 1250 ft | 12 kts | 221° |
| 2026-04-30 07:01 | 49.62591 | 6.20453 | 1239 ft | 21 kts | 230° |
| 2026-04-30 07:01 | 49.62503 | 6.20292 | 1233 ft | 19 kts | 234° |
| 2026-04-30 07:01 | 49.62436 | 6.20116 | 1228 ft | 19 kts | 240° |
| 2026-04-30 07:01 | 49.62370 | 6.19941 | 1222 ft | 19 kts | 240° |
| 2026-04-30 07:02 | 49.62309 | 6.19778 | 1214 ft | 19 kts | 239° |
| 2026-04-30 07:02 | 49.62235 | 6.19580 | 1204 ft | 23 kts | 240° |
| 2026-04-30 07:02 | 49.62159 | 6.19374 | 1190 ft | 22 kts | 240° |
| 2026-04-30 07:02 | 49.62093 | 6.19194 | 1183 ft | 20 kts | 239° |
| 2026-04-30 07:03 | 49.62028 | 6.19018 | 1175 ft | 16 kts | 240° |
| 2026-04-30 07:03 | 49.61972 | 6.18870 | 1171 ft | 16 kts | 239° |
| 2026-04-30 07:03 | 49.61896 | 6.18753 | 1170 ft | 13 kts | 216° |
| 2026-04-30 07:03 | 49.61827 | 6.18711 | 1166 ft | 9 kts | 172° |
| 2026-04-30 07:04 | 49.61781 | 6.18755 | 1168 ft | 6 kts | 136° |
| 2026-04-30 07:04 | 49.61773 | 6.18813 | 1172 ft | 6 kts | 61° |
| 2026-04-30 07:04 | 49.61795 | 6.18866 | 1169 ft | 8 kts | 58° |
| 2026-04-30 07:04 | 49.61905 | 6.19163 | 1182 ft | 65 kts | 58° |
| 2026-04-30 07:05 | 49.62525 | 6.20834 | 1281 ft | 141 kts | 63° |
| 2026-04-30 07:05 | 49.63193 | 6.22678 | 2032 ft | 150 kts | 63° |
| 2026-04-30 07:05 | 49.63724 | 6.24069 | 2759 ft | 152 kts | 65° |
| 2026-04-30 07:06 | 49.64094 | 6.24997 | 3189 ft | 154 kts | 65° |
| 2026-04-30 07:06 | 49.64665 | 6.26474 | 3629 ft | 169 kts | 66° |
| 2026-04-30 07:06 | 49.65278 | 6.28158 | 3864 ft | 187 kts | 66° |
| 2026-04-30 07:06 | 49.65958 | 6.30036 | 4026 ft | 215 kts | 65° |
| 2026-04-30 07:07 | 49.66723 | 6.32144 | 4489 ft | 234 kts | 64° |
| 2026-04-30 07:07 | 49.67542 | 6.34374 | 5246 ft | 245 kts | 63° |
| 2026-04-30 07:07 | 49.68443 | 6.36657 | 6081 ft | 253 kts | 54° |
| 2026-04-30 07:07 | 49.69915 | 6.38193 | 6942 ft | 267 kts | 19° |
| 2026-04-30 07:08 | 49.71800 | 6.38183 | 7723 ft | 283 kts | 345° |
| 2026-04-30 07:08 | 49.73464 | 6.36528 | 8515 ft | 294 kts | 311° |
| 2026-04-30 07:08 | 49.74365 | 6.33634 | 9316 ft | 301 kts | 278° |
| 2026-04-30 07:08 | 49.74305 | 6.30425 | 10087 ft | 306 kts | 260° |
| 2026-04-30 07:09 | 49.73971 | 6.27157 | 10799 ft | 311 kts | 260° |
| 2026-04-30 07:09 | 49.73604 | 6.23834 | 11531 ft | 314 kts | 255° |
| 2026-04-30 07:09 | 49.72770 | 6.20662 | 12271 ft | 317 kts | 242° |
| 2026-04-30 07:09 | 49.71896 | 6.17518 | 12690 ft | 334 kts | 250° |
| 2026-04-30 07:10 | 49.71166 | 6.14003 | 13064 ft | 351 kts | 253° |
| 2026-04-30 07:10 | 49.70489 | 6.10259 | 13492 ft | 364 kts | 255° |
| 2026-04-30 07:10 | 49.69833 | 6.06435 | 14145 ft | 370 kts | 255° |
| 2026-04-30 07:10 | 49.69181 | 6.02648 | 14750 ft | 373 kts | 255° |
| 2026-04-30 07:11 | 49.68482 | 5.98697 | 15392 ft | 377 kts | 254° |
| 2026-04-30 07:11 | 49.67770 | 5.94805 | 16000 ft | 380 kts | 254° |
| 2026-04-30 07:11 | 49.67027 | 5.90845 | 16618 ft | 384 kts | 254° |
| 2026-04-30 07:11 | 49.66271 | 5.86874 | 17228 ft | 387 kts | 253° |
| 2026-04-30 07:12 | 49.65504 | 5.82858 | 17828 ft | 391 kts | 253° |
| 2026-04-30 07:12 | 49.64732 | 5.78821 | 18426 ft | 395 kts | 253° |
| 2026-04-30 07:12 | 49.63953 | 5.74737 | 18954 ft | 398 kts | 254° |
| 2026-04-30 07:12 | 49.63169 | 5.70628 | 19467 ft | 402 kts | 253° |
| 2026-04-30 07:13 | 49.62376 | 5.66478 | 19981 ft | 405 kts | 253° |
| 2026-04-30 07:13 | 49.61578 | 5.62288 | 20492 ft | 408 kts | 253° |
| 2026-04-30 07:13 | 49.60892 | 5.58032 | 21009 ft | 411 kts | 262° |
| 2026-04-30 07:13 | 49.60618 | 5.53635 | 21521 ft | 414 kts | 267° |
| 2026-04-30 07:14 | 49.60428 | 5.49197 | 22013 ft | 417 kts | 267° |
| 2026-04-30 07:14 | 49.60234 | 5.44710 | 22517 ft | 421 kts | 267° |
| 2026-04-30 07:14 | 49.60036 | 5.40199 | 23032 ft | 424 kts | 267° |
| 2026-04-30 07:14 | 49.59829 | 5.35650 | 23530 ft | 427 kts | 266° |
| 2026-04-30 07:15 | 49.59612 | 5.31073 | 23988 ft | 430 kts | 266° |
| 2026-04-30 07:15 | 49.59390 | 5.26451 | 24388 ft | 433 kts | 266° |
| 2026-04-30 07:15 | 49.59110 | 5.21815 | 24783 ft | 436 kts | 261° |
| 2026-04-30 07:15 | 49.58434 | 5.17250 | 25187 ft | 438 kts | 254° |
| 2026-04-30 07:16 | 49.57621 | 5.12711 | 25574 ft | 441 kts | 254° |
| 2026-04-30 07:16 | 49.56804 | 5.08139 | 25940 ft | 444 kts | 254° |
| 2026-04-30 07:16 | 49.55987 | 5.03557 | 26308 ft | 446 kts | 254° |
| 2026-04-30 07:16 | 49.55165 | 4.98939 | 26667 ft | 448 kts | 254° |
| 2026-04-30 07:17 | 49.54335 | 4.94294 | 27028 ft | 451 kts | 254° |
| 2026-04-30 07:17 | 49.53502 | 4.89634 | 27374 ft | 453 kts | 254° |
| 2026-04-30 07:17 | 49.51821 | 4.80230 | 28047 ft | 458 kts | 253° |
| 2026-04-30 07:18 | 49.50976 | 4.75511 | 28373 ft | 460 kts | 253° |
| 2026-04-30 07:18 | 49.50123 | 4.70757 | 28702 ft | 462 kts | 253° |
| 2026-04-30 07:18 | 49.49255 | 4.65963 | 29019 ft | 465 kts | 253° |
| 2026-04-30 07:18 | 49.48379 | 4.61167 | 29326 ft | 467 kts | 253° |
| 2026-04-30 07:19 | 49.47513 | 4.56444 | 29616 ft | 469 kts | 253° |
| 2026-04-30 07:19 | 49.46636 | 4.51655 | 29911 ft | 471 kts | 253° |
| 2026-04-30 07:19 | 49.45746 | 4.46781 | 30200 ft | 473 kts | 253° |
| 2026-04-30 07:19 | 49.44861 | 4.41956 | 30450 ft | 475 kts | 252° |
| 2026-04-30 07:20 | 49.43948 | 4.37005 | 30702 ft | 477 kts | 252° |
| 2026-04-30 07:20 | 49.43039 | 4.32092 | 30949 ft | 478 kts | 252° |
| 2026-04-30 07:20 | 49.42130 | 4.27187 | 31198 ft | 479 kts | 252° |
| 2026-04-30 07:20 | 49.41237 | 4.22375 | 31425 ft | 480 kts | 252° |
| 2026-04-30 07:21 | 49.40319 | 4.17444 | 31671 ft | 481 kts | 252° |
| 2026-04-30 07:21 | 49.39401 | 4.12532 | 31996 ft | 479 kts | 252° |
| 2026-04-30 07:21 | 49.38481 | 4.07630 | 32209 ft | 477 kts | 252° |
| 2026-04-30 07:21 | 49.37574 | 4.02820 | 32251 ft | 461 kts | 252° |
| 2026-04-30 07:22 | 49.36259 | 3.93507 | 32244 ft | 450 kts | 263° |
| 2026-04-30 07:22 | 49.35577 | 3.83945 | 32237 ft | 450 kts | 263° |
| 2026-04-30 07:23 | 49.34891 | 3.74495 | 32237 ft | 450 kts | 262° |
| 2026-04-30 07:23 | 49.34184 | 3.64985 | 32235 ft | 450 kts | 262° |
| 2026-04-30 07:24 | 49.33463 | 3.55431 | 32231 ft | 449 kts | 262° |
| 2026-04-30 07:24 | 49.32737 | 3.45932 | 32229 ft | 449 kts | 262° |
| 2026-04-30 07:25 | 49.32193 | 3.36407 | 32213 ft | 449 kts | 272° |
| 2026-04-30 07:25 | 49.32558 | 3.31670 | 32203 ft | 449 kts | 283° |
| 2026-04-30 07:25 | 49.33470 | 3.27091 | 32203 ft | 449 kts | 294° |
| 2026-04-30 07:26 | 49.36763 | 3.19049 | 32199 ft | 445 kts | 314° |
| 2026-04-30 07:26 | 49.40921 | 3.12022 | 32212 ft | 445 kts | 314° |
| 2026-04-30 07:27 | 49.45059 | 3.04926 | 32204 ft | 446 kts | 314° |
| 2026-04-30 07:27 | 49.49188 | 2.97807 | 32208 ft | 446 kts | 314° |
| 2026-04-30 07:28 | 49.53328 | 2.90686 | 32208 ft | 446 kts | 314° |
| 2026-04-30 07:28 | 49.57467 | 2.83560 | 32212 ft | 447 kts | 314° |
| 2026-04-30 07:29 | 49.61614 | 2.76419 | 32211 ft | 447 kts | 314° |
| 2026-04-30 07:29 | 49.65752 | 2.69245 | 32223 ft | 448 kts | 313° |
| 2026-04-30 07:30 | 49.69507 | 2.61587 | 32222 ft | 450 kts | 299° |
| 2026-04-30 07:30 | 49.70809 | 2.57189 | 32222 ft | 451 kts | 290° |
| 2026-04-30 07:31 | 49.72920 | 2.48106 | 32230 ft | 452 kts | 290° |
| 2026-04-30 07:31 | 49.75060 | 2.38979 | 32233 ft | 452 kts | 290° |
| 2026-04-30 07:32 | 49.77198 | 2.29829 | 32237 ft | 452 kts | 290° |
| 2026-04-30 07:32 | 49.79596 | 2.20828 | 32230 ft | 452 kts | 294° |
| 2026-04-30 07:33 | 49.82198 | 2.11951 | 32215 ft | 453 kts | 295° |
| 2026-04-30 07:33 | 49.84782 | 2.03071 | 32216 ft | 453 kts | 294° |
| 2026-04-30 07:34 | 49.87479 | 1.94228 | 32232 ft | 453 kts | 302° |
| 2026-04-30 07:34 | 49.91473 | 1.86743 | 32222 ft | 450 kts | 321° |
| 2026-04-30 07:35 | 49.96347 | 1.80708 | 32220 ft | 451 kts | 324° |
| 2026-04-30 07:35 | 50.01268 | 1.74643 | 31984 ft | 444 kts | 323° |
| 2026-04-30 07:35 | 50.03655 | 1.71679 | 31652 ft | 436 kts | 323° |
| 2026-04-30 07:36 | 50.06011 | 1.68746 | 31192 ft | 432 kts | 323° |
| 2026-04-30 07:36 | 50.08322 | 1.65840 | 30708 ft | 429 kts | 322° |
| 2026-04-30 07:36 | 50.10616 | 1.62825 | 30203 ft | 428 kts | 321° |
| 2026-04-30 07:36 | 50.12856 | 1.59773 | 29645 ft | 426 kts | 320° |
| 2026-04-30 07:37 | 50.15058 | 1.56721 | 29145 ft | 422 kts | 320° |
| 2026-04-30 07:37 | 50.17220 | 1.53716 | 28612 ft | 420 kts | 320° |
| 2026-04-30 07:37 | 50.19393 | 1.50708 | 28093 ft | 418 kts | 320° |
| 2026-04-30 07:37 | 50.21575 | 1.47708 | 27570 ft | 416 kts | 321° |
| 2026-04-30 07:38 | 50.23739 | 1.44750 | 27053 ft | 414 kts | 321° |
| 2026-04-30 07:38 | 50.25905 | 1.41800 | 26548 ft | 412 kts | 321° |
| 2026-04-30 07:38 | 50.28069 | 1.38846 | 26041 ft | 410 kts | 321° |
| 2026-04-30 07:38 | 50.30215 | 1.35912 | 25551 ft | 408 kts | 321° |
| 2026-04-30 07:39 | 50.32340 | 1.33007 | 25072 ft | 406 kts | 321° |
| 2026-04-30 07:39 | 50.34465 | 1.30095 | 24599 ft | 403 kts | 321° |
| 2026-04-30 07:39 | 50.36568 | 1.27205 | 24130 ft | 401 kts | 321° |
| 2026-04-30 07:39 | 50.38557 | 1.24466 | 23671 ft | 399 kts | 321° |
| 2026-04-30 07:40 | 50.40633 | 1.21601 | 23127 ft | 397 kts | 320° |
| 2026-04-30 07:40 | 50.42698 | 1.18750 | 22589 ft | 395 kts | 320° |
| 2026-04-30 07:40 | 50.44751 | 1.15911 | 22066 ft | 393 kts | 320° |
| 2026-04-30 07:40 | 50.46801 | 1.13072 | 21548 ft | 392 kts | 320° |
| 2026-04-30 07:41 | 50.48829 | 1.10260 | 21041 ft | 390 kts | 320° |
| 2026-04-30 07:41 | 50.50868 | 1.07434 | 20555 ft | 389 kts | 320° |